createdAt,value
2018-07-19T00:00:15.685Z,86.53
2018-07-19T00:02:44.832Z,86.03
2018-07-19T00:05:13.985Z,85.96
2018-07-19T00:07:43.197Z,85.78
2018-07-19T00:10:12.379Z,87.09
2018-07-19T00:12:41.566Z,86.76
2018-07-19T00:15:11.570Z,86.74
2018-07-19T00:17:41.045Z,86.43
2018-07-19T00:20:10.289Z,86.71
2018-07-19T00:22:39.420Z,86.81
2018-07-19T00:25:08.795Z,86.76
2018-07-19T00:27:37.908Z,87.27
2018-07-19T00:30:07.097Z,87.41
2018-07-19T00:32:36.252Z,87.07
2018-07-19T00:35:05.506Z,86.70
2018-07-19T00:37:34.700Z,86.95
2018-07-19T00:40:03.917Z,87.38
2018-07-19T00:42:33.073Z,86.85
2018-07-19T00:45:02.242Z,87.54
2018-07-19T00:47:31.409Z,87.85
2018-07-19T00:50:00.574Z,87.46
2018-07-19T00:52:29.702Z,87.73
2018-07-19T00:54:58.860Z,87.73
2018-07-19T00:57:28.025Z,87.82
2018-07-19T00:59:57.185Z,87.52
2018-07-19T01:02:26.334Z,87.74
2018-07-19T01:04:55.524Z,87.23
2018-07-19T01:07:24.656Z,87.58
2018-07-19T01:09:53.793Z,88.00
2018-07-19T01:12:22.965Z,88.67
2018-07-19T01:14:52.085Z,88.91
2018-07-19T01:17:21.276Z,88.12
2018-07-19T01:19:50.464Z,88.71
2018-07-19T01:22:19.667Z,89.10
2018-07-19T01:24:48.889Z,88.38
2018-07-19T01:27:18.056Z,88.36
2018-07-19T01:29:47.181Z,88.16
2018-07-19T01:32:16.306Z,88.97
2018-07-19T01:34:45.460Z,88.64
2018-07-19T01:37:14.701Z,88.44
2018-07-19T01:39:43.837Z,87.83
2018-07-19T01:42:26.521Z,88.65
2018-07-19T01:44:55.714Z,87.81
2018-07-19T01:47:24.920Z,88.13
2018-07-19T01:49:54.073Z,88.01
2018-07-19T01:52:23.265Z,87.61
2018-07-19T01:54:52.449Z,87.75
2018-07-19T01:57:21.873Z,86.92
2018-07-19T01:59:51.409Z,86.58
2018-07-19T02:02:20.990Z,86.16
2018-07-19T02:04:50.213Z,86.49
2018-07-19T02:07:19.383Z,86.40
2018-07-19T02:09:48.539Z,86.65
2018-07-19T02:12:17.780Z,86.35
2018-07-19T02:14:47.002Z,86.40
2018-07-19T02:17:16.139Z,85.89
2018-07-19T02:19:45.297Z,87.18
2018-07-19T02:22:14.920Z,88.50
2018-07-19T02:24:44.132Z,89.06
2018-07-19T02:27:13.350Z,89.04
2018-07-19T02:29:42.493Z,88.58
2018-07-19T02:32:11.781Z,88.96
2018-07-19T02:34:40.997Z,88.47
2018-07-19T02:37:11.156Z,88.19
2018-07-19T02:39:40.396Z,87.49
2018-07-19T02:42:09.873Z,87.97
2018-07-19T02:44:39.077Z,87.71
2018-07-19T02:47:08.498Z,87.83
2018-07-19T02:49:37.681Z,87.38
2018-07-19T02:52:07.252Z,88.00
2018-07-19T02:54:36.429Z,88.65
2018-07-19T02:57:06.210Z,88.12
2018-07-19T02:59:35.395Z,88.20
2018-07-19T03:02:04.737Z,87.93
2018-07-19T03:04:33.997Z,88.69
2018-07-19T03:07:03.141Z,89.33
2018-07-19T03:09:32.828Z,89.39
2018-07-19T03:12:02.066Z,89.70
2018-07-19T03:14:31.234Z,89.78
2018-07-19T03:17:00.485Z,90.17
2018-07-19T03:19:29.651Z,90.68
2018-07-19T03:21:58.833Z,90.48
2018-07-19T03:24:27.982Z,90.41
2018-07-19T03:26:57.154Z,90.23
2018-07-19T03:29:26.703Z,90.41
2018-07-19T03:31:56.513Z,90.39
2018-07-19T03:34:25.653Z,90.19
2018-07-19T03:36:54.780Z,89.98
2018-07-19T03:39:23.916Z,90.27
2018-07-19T03:41:53.125Z,89.62
2018-07-19T03:44:22.749Z,89.45
2018-07-19T03:46:52.030Z,89.65
2018-07-19T03:49:21.385Z,89.73
2018-07-19T03:51:50.526Z,89.48
2018-07-19T03:54:19.705Z,89.00
2018-07-19T03:56:48.871Z,89.32
2018-07-19T03:59:18.028Z,89.29
2018-07-19T04:01:47.214Z,89.53
2018-07-19T04:04:16.370Z,89.12
2018-07-19T04:06:45.547Z,89.66
2018-07-19T04:09:14.717Z,88.48
2018-07-19T04:11:43.893Z,88.64
2018-07-19T04:14:13.648Z,88.74
2018-07-19T04:16:42.832Z,89.59
2018-07-19T04:19:11.997Z,88.77
2018-07-19T04:21:41.159Z,88.23
2018-07-19T04:24:10.343Z,87.02
2018-07-19T04:26:39.673Z,87.02
2018-07-19T04:29:09.090Z,86.15
2018-07-19T04:31:38.264Z,85.67
2018-07-19T04:34:07.612Z,85.68
2018-07-19T04:36:37.121Z,85.48
2018-07-19T04:39:08.171Z,85.17
2018-07-19T04:41:37.321Z,85.35
2018-07-19T04:44:06.534Z,86.12
2018-07-19T04:46:35.697Z,85.75
2018-07-19T04:49:04.924Z,85.58
2018-07-19T04:51:34.099Z,85.80
2018-07-19T04:54:03.311Z,85.30
2018-07-19T04:56:32.576Z,85.76
2018-07-19T04:59:01.721Z,85.13
2018-07-19T05:01:30.897Z,85.03
2018-07-19T05:04:00.078Z,84.83
2018-07-19T05:06:29.600Z,84.66
2018-07-19T05:08:58.744Z,84.52
2018-07-19T05:11:27.905Z,84.47
2018-07-19T05:13:57.035Z,83.52
2018-07-19T05:16:26.233Z,83.69
2018-07-19T05:18:55.382Z,82.49
2018-07-19T05:21:24.534Z,83.14
2018-07-19T05:23:53.692Z,82.26
2018-07-19T05:26:22.859Z,80.83
2018-07-19T05:28:52.005Z,82.40
2018-07-19T05:31:21.186Z,82.75
2018-07-19T05:33:50.379Z,80.19
2018-07-19T05:36:20.035Z,78.23
2018-07-19T05:38:49.291Z,77.78
2018-07-19T05:41:18.454Z,78.46
2018-07-19T05:43:47.664Z,77.68
2018-07-19T05:46:16.905Z,77.71
2018-07-19T05:48:46.139Z,77.41
2018-07-19T05:51:15.321Z,76.87
2018-07-19T05:53:44.527Z,75.00
2018-07-19T05:56:13.676Z,74.24
2018-07-19T05:58:42.827Z,74.64
2018-07-19T06:01:12.006Z,73.43
2018-07-19T06:03:41.164Z,72.76
2018-07-19T06:06:10.364Z,70.45
2018-07-19T06:08:39.542Z,69.71
2018-07-19T06:11:09.663Z,69.60
2018-07-19T06:13:38.913Z,67.81
2018-07-19T06:16:08.130Z,68.37
2018-07-19T06:18:37.250Z,67.16
2018-07-19T06:21:06.614Z,67.40
2018-07-19T06:23:35.853Z,65.89
2018-07-19T06:26:05.188Z,66.17
2018-07-19T06:28:34.358Z,65.01
2018-07-19T06:31:03.552Z,65.22
2018-07-19T06:33:32.795Z,67.33
2018-07-19T06:36:01.948Z,65.58
2018-07-19T06:38:31.230Z,67.23
2018-07-19T06:41:00.393Z,67.45
2018-07-19T06:43:29.549Z,66.70
2018-07-19T06:45:58.750Z,66.00
2018-07-19T06:48:27.947Z,64.92
2018-07-19T06:50:57.226Z,64.94
2018-07-19T06:53:26.408Z,64.08
2018-07-19T06:55:55.607Z,62.42
2018-07-19T06:58:24.929Z,65.44
2018-07-19T07:00:54.136Z,62.51
2018-07-19T07:03:23.390Z,62.16
2018-07-19T07:05:52.637Z,61.45
2018-07-19T07:08:21.835Z,58.78
2018-07-19T07:10:51.005Z,58.99
2018-07-19T07:13:20.208Z,60.45
2018-07-19T07:15:49.412Z,59.14
2018-07-19T07:18:18.575Z,58.59
2018-07-19T07:20:48.888Z,58.01
2018-07-19T07:23:18.137Z,59.94
2018-07-19T07:25:51.720Z,55.86
2018-07-19T07:28:22.271Z,55.57
2018-07-19T07:30:51.409Z,56.25
2018-07-19T07:33:20.830Z,54.66
2018-07-19T07:35:50.473Z,57.13
2018-07-19T07:38:20.160Z,54.95
2018-07-19T07:40:49.693Z,54.32
2018-07-19T07:43:18.948Z,53.00
2018-07-19T07:45:48.152Z,53.53
2018-07-19T07:48:17.350Z,52.87
2018-07-19T07:50:46.539Z,52.08
2018-07-19T07:53:15.712Z,51.29
2018-07-19T07:55:44.924Z,52.85
2018-07-19T07:58:14.148Z,52.47
2018-07-19T08:00:43.325Z,52.34
2018-07-19T08:03:12.611Z,51.91
2018-07-19T08:05:41.866Z,51.17
2018-07-19T08:08:11.053Z,51.71
2018-07-19T08:10:40.252Z,50.49
2018-07-19T08:13:09.549Z,51.26
2018-07-19T08:15:38.871Z,52.74
2018-07-19T08:18:08.113Z,51.58
2018-07-19T08:20:37.613Z,51.99
2018-07-19T08:23:07.655Z,50.57
2018-07-19T08:25:36.890Z,51.69
2018-07-19T08:28:06.203Z,50.92
2018-07-19T08:30:35.402Z,49.11
2018-07-19T08:33:04.664Z,49.92
2018-07-19T08:35:33.812Z,51.22
2018-07-19T08:38:02.977Z,49.68
2018-07-19T08:40:32.153Z,47.59
2018-07-19T08:43:01.438Z,50.53
2018-07-19T08:45:30.756Z,50.35
2018-07-19T08:47:59.923Z,50.06
2018-07-19T08:50:29.174Z,50.34
2018-07-19T08:52:58.405Z,49.95
2018-07-19T08:55:27.680Z,47.84
2018-07-19T08:57:56.884Z,47.77
2018-07-19T09:00:26.718Z,48.72
2018-07-19T09:02:56.066Z,45.40
2018-07-19T09:05:25.257Z,46.20
2018-07-19T09:07:54.413Z,47.30
2018-07-19T09:10:23.603Z,46.77
2018-07-19T09:12:52.906Z,47.88
2018-07-19T09:15:22.089Z,46.94
2018-07-19T09:17:51.285Z,45.39
2018-07-19T09:20:20.437Z,44.57
2018-07-19T09:22:49.662Z,45.63
2018-07-19T09:25:19.506Z,45.88
2018-07-19T09:27:49.031Z,44.43
2018-07-19T09:30:18.807Z,44.10
2018-07-19T09:32:47.953Z,43.29
2018-07-19T09:35:17.290Z,45.31
2018-07-19T09:37:46.450Z,43.93
2018-07-19T09:40:15.692Z,45.66
2018-07-19T09:42:45.043Z,44.11
2018-07-19T09:45:14.299Z,42.79
2018-07-19T09:47:43.484Z,41.30
2018-07-19T09:50:12.652Z,42.18
2018-07-19T09:52:41.926Z,43.80
2018-07-19T09:55:11.671Z,41.66
2018-07-19T09:57:40.871Z,41.24
2018-07-19T10:00:10.222Z,42.66
2018-07-19T10:02:39.416Z,43.55
2018-07-19T10:05:08.924Z,42.53
2018-07-19T10:07:38.077Z,39.60
2018-07-19T10:10:07.287Z,41.48
2018-07-19T10:12:36.469Z,41.36
2018-07-19T10:15:06.004Z,40.51
2018-07-19T10:17:35.183Z,41.16
2018-07-19T10:20:04.972Z,40.51
2018-07-19T10:22:34.143Z,40.74
2018-07-19T10:25:03.313Z,40.40
2018-07-19T10:27:32.531Z,40.75
2018-07-19T10:30:01.685Z,40.08
2018-07-19T10:32:30.893Z,38.81
2018-07-19T10:35:00.009Z,40.27
2018-07-19T10:37:29.220Z,38.85
2018-07-19T10:39:58.338Z,37.84
2018-07-19T10:42:27.542Z,38.20
2018-07-19T10:44:56.701Z,41.59
2018-07-19T10:47:25.911Z,40.03
2018-07-19T10:49:55.139Z,38.90
2018-07-19T10:52:24.354Z,40.00
2018-07-19T10:54:53.650Z,39.90
2018-07-19T10:57:23.012Z,37.09
2018-07-19T10:59:52.133Z,37.57
2018-07-19T11:02:21.295Z,38.40
2018-07-19T11:04:50.510Z,40.04
2018-07-19T11:07:19.666Z,38.41
2018-07-19T11:09:49.096Z,38.63
2018-07-19T11:12:18.188Z,39.19
2018-07-19T11:14:47.291Z,39.50
2018-07-19T11:17:16.488Z,39.88
2018-07-19T11:19:45.620Z,36.92
2018-07-19T11:22:14.802Z,39.34
2018-07-19T11:24:44.060Z,37.79
2018-07-19T11:27:13.255Z,37.64
2018-07-19T11:29:42.422Z,37.59
2018-07-19T11:32:12.462Z,38.33
2018-07-19T11:34:41.618Z,36.75
2018-07-19T11:37:11.521Z,37.74
2018-07-19T11:39:40.643Z,36.07
2018-07-19T11:42:10.258Z,36.66
2018-07-19T11:44:39.360Z,36.83
2018-07-19T11:47:08.692Z,35.62
2018-07-19T11:49:37.948Z,34.56
2018-07-19T11:52:07.153Z,35.84
2018-07-19T11:54:36.320Z,34.83
2018-07-19T11:57:05.519Z,34.93
2018-07-19T11:59:34.652Z,34.57
2018-07-19T12:02:03.811Z,35.51
2018-07-19T12:04:32.949Z,33.98
2018-07-19T12:07:02.088Z,34.81
2018-07-19T12:09:31.247Z,34.49
2018-07-19T12:12:00.474Z,36.45
2018-07-19T12:14:29.620Z,35.53
2018-07-19T12:16:58.878Z,33.08
2018-07-19T12:19:28.035Z,32.59
2018-07-19T12:21:57.224Z,32.35
2018-07-19T12:24:26.397Z,33.39
2018-07-19T12:26:55.600Z,34.79
2018-07-19T12:29:24.761Z,33.64
2018-07-19T12:31:53.933Z,33.46
2018-07-19T12:34:23.346Z,34.44
2018-07-19T12:36:52.516Z,33.66
2018-07-19T12:39:21.665Z,34.23
2018-07-19T12:41:50.814Z,33.65
2018-07-19T12:44:20.075Z,33.99
2018-07-19T12:46:49.245Z,34.42
2018-07-19T12:49:18.431Z,34.65
2018-07-19T12:51:47.570Z,33.46
2018-07-19T12:54:16.736Z,33.09
2018-07-19T12:56:45.920Z,32.83
2018-07-19T12:59:15.089Z,33.66
2018-07-19T13:01:44.265Z,34.50
2018-07-19T13:04:13.438Z,33.05
2018-07-19T13:06:42.616Z,32.77
2018-07-19T13:09:11.748Z,31.85
2018-07-19T13:11:40.905Z,32.53
2018-07-19T13:14:10.096Z,32.44
2018-07-19T13:16:39.250Z,31.04
2018-07-19T13:19:08.550Z,31.81
2018-07-19T13:21:37.845Z,32.57
2018-07-19T13:24:07.078Z,34.23
2018-07-19T13:26:36.235Z,31.66
2018-07-19T13:29:05.479Z,31.70
2018-07-19T13:31:34.707Z,31.61
2018-07-19T13:34:03.953Z,30.50
2018-07-19T13:36:33.327Z,32.88
2018-07-19T13:39:02.428Z,31.71
2018-07-19T13:41:31.625Z,31.29
2018-07-19T13:44:00.810Z,32.96
2018-07-19T13:46:29.978Z,30.78
2018-07-19T13:48:59.139Z,30.63
2018-07-19T13:51:28.337Z,29.64
2018-07-19T13:54:20.835Z,31.21
2018-07-19T13:56:49.975Z,31.44
2018-07-19T13:59:19.146Z,29.96
2018-07-19T14:01:48.406Z,30.45
2018-07-19T14:04:17.703Z,30.52
2018-07-19T14:06:47.801Z,29.77
2018-07-19T14:09:17.036Z,30.17
2018-07-19T14:11:46.210Z,29.04
2018-07-19T14:14:15.379Z,29.50
2018-07-19T14:16:44.537Z,30.91
2018-07-19T14:19:13.693Z,31.28
2018-07-19T14:21:42.837Z,29.20
2018-07-19T14:24:12.033Z,29.47
2018-07-19T14:26:41.833Z,29.66
2018-07-19T14:29:11.281Z,30.80
2018-07-19T14:31:41.077Z,30.90
2018-07-19T14:34:10.261Z,29.62
2018-07-19T14:36:39.506Z,30.29
2018-07-19T14:39:11.839Z,30.63
2018-07-19T14:41:41.034Z,30.78
2018-07-19T14:44:10.320Z,30.13
2018-07-19T14:46:39.594Z,32.42
2018-07-19T14:49:09.044Z,31.59
2018-07-19T14:51:38.201Z,30.02
2018-07-19T14:54:07.587Z,31.02
2018-07-19T14:56:36.824Z,31.49
2018-07-19T14:59:06.032Z,29.62
2018-07-19T15:01:35.313Z,28.99
2018-07-19T15:04:04.921Z,30.33
2018-07-19T15:06:34.233Z,30.14
2018-07-19T15:09:03.528Z,30.97
2018-07-19T15:11:32.662Z,31.21
2018-07-19T15:14:01.862Z,31.20
2018-07-19T15:16:31.089Z,29.59
2018-07-19T15:19:00.237Z,29.83
2018-07-19T15:21:29.367Z,30.43
2018-07-19T15:23:58.537Z,28.93
2018-07-19T15:26:27.698Z,29.66
2018-07-19T15:28:57.015Z,29.00
2018-07-19T15:31:26.219Z,30.45
2018-07-19T15:33:55.349Z,30.00
2018-07-19T15:36:24.571Z,29.91
2018-07-19T15:38:53.747Z,30.05
2018-07-19T15:41:22.889Z,28.75
2018-07-19T15:43:52.064Z,29.06
2018-07-19T15:46:21.261Z,29.16
2018-07-19T15:48:50.462Z,30.28
2018-07-19T15:51:19.650Z,30.35
2018-07-19T15:53:48.859Z,29.75
2018-07-19T15:56:17.976Z,30.18
2018-07-19T15:58:47.120Z,29.66
2018-07-19T16:01:16.278Z,29.07
2018-07-19T16:03:45.390Z,29.85
2018-07-19T16:06:14.538Z,30.23
2018-07-19T16:08:43.781Z,30.14
2018-07-19T16:11:12.946Z,29.59
2018-07-19T16:13:42.124Z,29.81
2018-07-19T16:16:11.268Z,30.20
2018-07-19T16:18:40.390Z,28.86
2018-07-19T16:21:09.641Z,28.96
2018-07-19T16:23:38.843Z,30.28
2018-07-19T16:26:08.028Z,30.38
2018-07-19T16:28:37.182Z,30.30
2018-07-19T16:31:06.520Z,30.22
2018-07-19T16:33:35.844Z,30.12
2018-07-19T16:36:05.058Z,30.53
2018-07-19T16:38:34.205Z,30.38
2018-07-19T16:41:03.372Z,30.29
2018-07-19T16:43:32.544Z,29.99
2018-07-19T16:46:03.119Z,31.08
2018-07-19T16:48:32.253Z,30.08
2018-07-19T16:51:01.409Z,29.84
2018-07-19T16:53:30.727Z,29.30
2018-07-19T16:55:59.881Z,29.91
2018-07-19T16:58:29.006Z,30.35
2018-07-19T17:00:58.166Z,30.38
2018-07-19T17:03:27.363Z,31.53
2018-07-19T17:05:56.530Z,31.41
2018-07-19T17:08:25.698Z,31.24
2018-07-19T17:10:54.986Z,31.79
2018-07-19T17:13:24.141Z,32.00
2018-07-19T17:15:53.298Z,30.96
2018-07-19T17:18:22.480Z,32.24
2018-07-19T17:20:51.665Z,31.83
2018-07-19T17:23:20.798Z,33.90
2018-07-19T17:25:49.936Z,32.44
2018-07-19T17:28:19.109Z,32.70
2018-07-19T17:30:48.287Z,32.12
2018-07-19T17:33:17.593Z,32.39
2018-07-19T17:35:46.725Z,32.91
2018-07-19T17:38:16.021Z,32.76
2018-07-19T17:40:45.185Z,33.54
2018-07-19T17:43:14.467Z,33.43
2018-07-19T17:45:43.661Z,33.62
2018-07-19T17:48:12.850Z,33.78
2018-07-19T17:50:42.062Z,33.96
2018-07-19T17:53:11.577Z,34.75
2018-07-19T17:55:41.237Z,35.98
2018-07-19T17:58:10.439Z,35.95
2018-07-19T18:00:41.429Z,36.23
2018-07-19T18:03:11.800Z,36.83
2018-07-19T18:05:41.518Z,37.82
2018-07-19T18:08:10.738Z,36.93
2018-07-19T18:10:39.911Z,37.93
2018-07-19T18:13:09.300Z,37.54
2018-07-19T18:15:39.377Z,37.82
2018-07-19T18:18:08.550Z,38.30
2018-07-19T18:20:37.674Z,38.39
2018-07-19T18:23:07.062Z,39.53
2018-07-19T18:25:37.614Z,38.30
2018-07-19T18:28:07.167Z,39.36
2018-07-19T18:30:36.419Z,39.36
2018-07-19T18:33:05.738Z,40.10
2018-07-19T18:35:34.912Z,43.15
2018-07-19T18:38:04.092Z,44.80
2018-07-19T18:40:33.253Z,43.33
2018-07-19T18:43:02.630Z,43.73
2018-07-19T18:45:31.984Z,42.60
2018-07-19T18:48:01.212Z,42.99
2018-07-19T18:50:30.330Z,43.83
2018-07-19T18:52:59.536Z,44.11
2018-07-19T18:55:28.697Z,45.58
2018-07-19T18:57:57.861Z,46.33
2018-07-19T19:00:27.084Z,46.92
2018-07-19T19:02:56.239Z,47.60
2018-07-19T19:05:25.401Z,48.78
2018-07-19T19:07:54.597Z,48.37
2018-07-19T19:10:24.117Z,50.14
2018-07-19T19:12:53.335Z,49.08
2018-07-19T19:15:22.547Z,49.22
2018-07-19T19:17:51.713Z,48.44
2018-07-19T19:20:20.920Z,46.07
2018-07-19T19:22:50.210Z,45.98
2018-07-19T19:25:19.398Z,48.89
2018-07-19T19:27:48.625Z,50.56
2018-07-19T19:30:17.801Z,50.56
2018-07-19T19:32:46.959Z,51.96
2018-07-19T19:35:16.315Z,51.78
2018-07-19T19:37:45.538Z,53.18
2018-07-19T19:40:15.186Z,53.06
2018-07-19T19:42:44.414Z,53.95
2018-07-19T19:45:13.579Z,54.21
2018-07-19T19:47:43.177Z,55.63
2018-07-19T19:50:12.342Z,56.12
2018-07-19T19:52:41.858Z,56.38
2018-07-19T19:55:11.984Z,56.97
2018-07-19T19:57:41.349Z,56.31
2018-07-19T20:00:11.260Z,55.33
2018-07-19T20:02:40.439Z,56.27
2018-07-19T20:05:09.780Z,55.74
2018-07-19T20:07:39.013Z,56.98
2018-07-19T20:10:08.359Z,57.07
2018-07-19T20:12:37.806Z,57.59
2018-07-19T20:15:07.379Z,56.28
2018-07-19T20:17:37.404Z,56.32
2018-07-19T20:20:07.567Z,57.29
2018-07-19T20:22:36.792Z,57.67
2018-07-19T20:25:07.025Z,58.16
2018-07-19T20:27:36.180Z,57.68
2018-07-19T20:30:05.433Z,58.26
2018-07-19T20:32:34.575Z,58.35
2018-07-19T20:35:03.786Z,58.86
2018-07-19T20:37:32.970Z,58.97
2018-07-19T20:40:02.100Z,59.62
2018-07-19T20:42:31.248Z,60.33
2018-07-19T20:45:00.431Z,60.55
2018-07-19T20:47:29.639Z,61.03
2018-07-19T20:49:58.768Z,60.71
2018-07-19T20:52:28.014Z,61.71
2018-07-19T20:54:57.232Z,61.91
2018-07-19T20:57:26.379Z,62.12
2018-07-19T20:59:55.527Z,61.63
2018-07-19T21:02:24.650Z,62.78
2018-07-19T21:04:53.822Z,62.53
2018-07-19T21:07:22.952Z,62.95
2018-07-19T21:09:52.105Z,62.62
2018-07-19T21:12:21.282Z,63.14
2018-07-19T21:14:50.471Z,63.59
2018-07-19T21:17:19.613Z,63.95
2018-07-19T21:19:48.773Z,63.56
2018-07-19T21:22:17.988Z,64.35
2018-07-19T21:24:47.145Z,64.66
2018-07-19T21:27:16.314Z,64.45
2018-07-19T21:29:45.478Z,64.33
2018-07-19T21:32:14.609Z,65.50
2018-07-19T21:34:43.813Z,65.39
2018-07-19T21:37:12.997Z,66.24
2018-07-19T21:39:42.136Z,65.83
2018-07-19T21:42:11.293Z,66.29
2018-07-19T21:44:40.473Z,66.87
2018-07-19T21:47:09.773Z,67.03
2018-07-19T21:49:38.959Z,67.56
2018-07-19T21:52:08.166Z,67.28
2018-07-19T21:54:37.316Z,68.49
2018-07-19T21:57:06.641Z,68.42
2018-07-19T21:59:35.811Z,68.80
2018-07-19T22:02:05.019Z,69.20
2018-07-19T22:04:34.183Z,69.40
2018-07-19T22:07:03.707Z,70.06
2018-07-19T22:09:32.858Z,70.22
2018-07-19T22:12:02.029Z,70.34
2018-07-19T22:14:31.221Z,69.79
2018-07-19T22:17:00.420Z,68.66
2018-07-19T22:19:29.579Z,68.79
2018-07-19T22:21:58.774Z,70.19
2018-07-19T22:24:27.930Z,70.37
2018-07-19T22:26:57.221Z,70.64
2018-07-19T22:29:26.407Z,72.11
2018-07-19T22:31:55.615Z,72.19
2018-07-19T22:34:24.761Z,72.98
2018-07-19T22:36:53.932Z,75.70
2018-07-19T22:39:30.495Z,77.20
2018-07-19T22:41:59.719Z,76.85
2018-07-19T22:44:28.872Z,76.94
2018-07-19T22:46:58.046Z,77.04
2018-07-19T22:49:27.275Z,77.48
2018-07-19T22:51:56.409Z,76.92
2018-07-19T22:54:25.600Z,77.08
2018-07-19T22:56:54.821Z,77.02
2018-07-19T22:59:24.053Z,76.73
2018-07-19T23:01:53.287Z,76.97
2018-07-19T23:04:22.458Z,77.17
2018-07-19T23:06:51.723Z,77.09
2018-07-19T23:09:20.900Z,77.04
2018-07-19T23:11:50.067Z,77.88
2018-07-19T23:14:19.223Z,77.70
2018-07-19T23:16:48.356Z,77.39
2018-07-19T23:19:17.534Z,77.43
2018-07-19T23:21:46.695Z,77.58
2018-07-19T23:24:15.873Z,78.05
2018-07-19T23:26:45.105Z,78.30
2018-07-19T23:29:14.297Z,78.70
2018-07-19T23:31:43.502Z,78.61
2018-07-19T23:34:12.694Z,79.22
2018-07-19T23:36:45.510Z,79.22
2018-07-19T23:39:20.429Z,79.53
2018-07-19T23:41:53.846Z,80.12
2018-07-19T23:44:26.888Z,80.55
2018-07-19T23:47:03.096Z,80.92
2018-07-19T23:49:32.280Z,81.56
2018-07-19T23:52:01.438Z,82.19
2018-07-19T23:54:30.613Z,81.72
2018-07-19T23:56:59.822Z,82.47
2018-07-19T23:59:29.008Z,82.51
